sensor_id;sensor_type;location;lat;lon;timestamp;P1;durP1;ratioP1;P2;durP2;ratioP2
71769;SDS011;59605;52.122;5.420;2022-10-23T00:03:52;1.92;;;1.38;;
71769;SDS011;59605;52.122;5.420;2022-10-23T00:06:20;2.80;;;1.30;;
71769;SDS011;59605;52.122;5.420;2022-10-23T00:08:47;2.53;;;1.70;;
71769;SDS011;59605;52.122;5.420;2022-10-23T00:11:15;2.15;;;1.48;;
71769;SDS011;59605;52.122;5.420;2022-10-23T00:13:44;2.38;;;1.60;;
71769;SDS011;59605;52.122;5.420;2022-10-23T00:16:12;2.00;;;1.70;;
71769;SDS011;59605;52.122;5.420;2022-10-23T00:18:38;2.65;;;1.70;;
71769;SDS011;59605;52.122;5.420;2022-10-23T00:21:06;2.20;;;1.80;;
71769;SDS011;59605;52.122;5.420;2022-10-23T00:23:33;2.22;;;1.33;;
71769;SDS011;59605;52.122;5.420;2022-10-23T00:26:00;3.15;;;1.42;;
71769;SDS011;59605;52.122;5.420;2022-10-23T00:28:27;2.40;;;1.33;;
71769;SDS011;59605;52.122;5.420;2022-10-23T00:30:53;2.00;;;1.40;;
71769;SDS011;59605;52.122;5.420;2022-10-23T00:33:20;2.40;;;1.70;;
71769;SDS011;59605;52.122;5.420;2022-10-23T00:35:46;1.90;;;1.50;;
71769;SDS011;59605;52.122;5.420;2022-10-23T00:38:13;1.75;;;1.48;;
71769;SDS011;59605;52.122;5.420;2022-10-23T00:40:39;2.40;;;1.60;;
71769;SDS011;59605;52.122;5.420;2022-10-23T00:43:12;1.73;;;1.50;;
71769;SDS011;59605;52.122;5.420;2022-10-23T00:45:43;1.83;;;1.53;;
71769;SDS011;59605;52.122;5.420;2022-10-23T00:48:10;3.45;;;1.63;;
71769;SDS011;59605;52.122;5.420;2022-10-23T00:50:38;2.13;;;1.52;;
71769;SDS011;59605;52.122;5.420;2022-10-23T00:53:05;2.20;;;1.60;;
71769;SDS011;59605;52.122;5.420;2022-10-23T00:55:34;2.30;;;1.48;;
71769;SDS011;59605;52.122;5.420;2022-10-23T00:58:03;2.17;;;1.57;;
71769;SDS011;59605;52.122;5.420;2022-10-23T01:00:38;2.00;;;1.55;;
71769;SDS011;59605;52.122;5.420;2022-10-23T01:03:16;1.75;;;1.65;;
71769;SDS011;59605;52.122;5.420;2022-10-23T01:11:29;1.77;;;1.33;;
71769;SDS011;59605;52.122;5.420;2022-10-23T01:16:45;3.08;;;1.58;;
71769;SDS011;59605;52.122;5.420;2022-10-23T01:19:19;1.48;;;1.38;;
71769;SDS011;59605;52.122;5.420;2022-10-23T01:35:23;2.22;;;1.25;;
71769;SDS011;59605;52.122;5.420;2022-10-23T01:37:55;1.73;;;1.00;;
71769;SDS011;59605;52.122;5.420;2022-10-23T01:40:30;1.65;;;1.52;;
71769;SDS011;59605;52.122;5.420;2022-10-23T01:43:06;1.70;;;1.38;;
71769;SDS011;59605;52.122;5.420;2022-10-23T01:45:41;1.92;;;1.45;;
71769;SDS011;59605;52.122;5.420;2022-10-23T01:48:17;2.05;;;1.17;;
71769;SDS011;59605;52.122;5.420;2022-10-23T01:50:46;2.20;;;1.63;;
71769;SDS011;59605;52.122;5.420;2022-10-23T01:53:16;1.38;;;1.10;;
71769;SDS011;59605;52.122;5.420;2022-10-23T01:55:44;1.88;;;1.40;;
71769;SDS011;59605;52.122;5.420;2022-10-23T01:58:12;1.67;;;1.38;;
71769;SDS011;59605;52.122;5.420;2022-10-23T02:00:40;1.75;;;1.50;;
71769;SDS011;59605;52.122;5.420;2022-10-23T02:03:10;1.80;;;1.13;;
71769;SDS011;59605;52.122;5.420;2022-10-23T02:05:40;1.73;;;1.10;;
71769;SDS011;59605;52.122;5.420;2022-10-23T02:08:08;2.05;;;1.20;;
71769;SDS011;59605;52.122;5.420;2022-10-23T02:10:48;1.80;;;1.30;;
71769;SDS011;59605;52.122;5.420;2022-10-23T02:19:13;1.67;;;1.40;;
71769;SDS011;59605;52.122;5.420;2022-10-23T02:25:19;1.52;;;1.30;;
71769;SDS011;59605;52.122;5.420;2022-10-23T02:27:25;1.45;;;1.20;;
71769;SDS011;59605;52.122;5.420;2022-10-23T02:30:00;2.17;;;1.40;;
71769;SDS011;59605;52.122;5.420;2022-10-23T02:32:36;1.48;;;1.10;;
71769;SDS011;59605;52.122;5.420;2022-10-23T02:35:06;2.15;;;1.23;;
71769;SDS011;59605;52.122;5.420;2022-10-23T02:37:33;1.67;;;1.30;;
71769;SDS011;59605;52.122;5.420;2022-10-23T02:40:00;1.48;;;1.08;;
71769;SDS011;59605;52.122;5.420;2022-10-23T02:42:38;1.80;;;1.30;;
71769;SDS011;59605;52.122;5.420;2022-10-23T02:50:50;1.20;;;1.10;;
71769;SDS011;59605;52.122;5.420;2022-10-23T02:55:59;1.03;;;0.90;;
71769;SDS011;59605;52.122;5.420;2022-10-23T03:01:11;1.67;;;1.10;;
71769;SDS011;59605;52.122;5.420;2022-10-23T03:03:43;1.90;;;1.10;;
71769;SDS011;59605;52.122;5.420;2022-10-23T03:06:13;1.75;;;1.17;;
71769;SDS011;59605;52.122;5.420;2022-10-23T03:08:51;1.47;;;0.93;;
71769;SDS011;59605;52.122;5.420;2022-10-23T03:11:19;1.40;;;1.30;;
71769;SDS011;59605;52.122;5.420;2022-10-23T03:13:45;2.30;;;1.25;;
71769;SDS011;59605;52.122;5.420;2022-10-23T03:16:12;1.45;;;1.13;;
71769;SDS011;59605;52.122;5.420;2022-10-23T03:18:38;1.42;;;1.15;;
71769;SDS011;59605;52.122;5.420;2022-10-23T03:21:04;2.37;;;1.40;;
71769;SDS011;59605;52.122;5.420;2022-10-23T03:23:31;1.73;;;1.23;;
71769;SDS011;59605;52.122;5.420;2022-10-23T03:25:57;1.52;;;1.10;;
71769;SDS011;59605;52.122;5.420;2022-10-23T03:28:24;1.15;;;1.05;;
71769;SDS011;59605;52.122;5.420;2022-10-23T03:30:50;1.50;;;1.10;;
71769;SDS011;59605;52.122;5.420;2022-10-23T03:33:17;1.23;;;1.00;;
71769;SDS011;59605;52.122;5.420;2022-10-23T03:35:43;1.58;;;1.10;;
71769;SDS011;59605;52.122;5.420;2022-10-23T03:38:10;1.70;;;1.00;;
71769;SDS011;59605;52.122;5.420;2022-10-23T03:40:36;1.85;;;1.30;;
71769;SDS011;59605;52.122;5.420;2022-10-23T03:43:02;1.40;;;1.10;;
71769;SDS011;59605;52.122;5.420;2022-10-23T03:45:31;1.80;;;1.13;;
71769;SDS011;59605;52.122;5.420;2022-10-23T03:47:57;1.92;;;1.10;;
71769;SDS011;59605;52.122;5.420;2022-10-23T03:50:24;2.45;;;1.13;;
71769;SDS011;59605;52.122;5.420;2022-10-23T03:52:50;1.58;;;1.00;;
71769;SDS011;59605;52.122;5.420;2022-10-23T03:55:17;1.50;;;1.20;;
71769;SDS011;59605;52.122;5.420;2022-10-23T03:57:43;1.20;;;0.90;;
71769;SDS011;59605;52.122;5.420;2022-10-23T04:00:09;1.70;;;1.25;;
71769;SDS011;59605;52.122;5.420;2022-10-23T04:02:36;1.63;;;1.08;;
71769;SDS011;59605;52.122;5.420;2022-10-23T04:05:03;1.83;;;1.17;;
71769;SDS011;59605;52.122;5.420;2022-10-23T04:07:29;2.53;;;1.25;;
71769;SDS011;59605;52.122;5.420;2022-10-23T04:09:55;1.50;;;1.20;;
71769;SDS011;59605;52.122;5.420;2022-10-23T04:12:22;2.47;;;1.10;;
71769;SDS011;59605;52.122;5.420;2022-10-23T04:14:48;1.42;;;1.10;;
71769;SDS011;59605;52.122;5.420;2022-10-23T04:17:15;1.38;;;0.90;;
71769;SDS011;59605;52.122;5.420;2022-10-23T04:19:41;1.30;;;1.20;;
71769;SDS011;59605;52.122;5.420;2022-10-23T04:22:07;2.13;;;1.20;;
71769;SDS011;59605;52.122;5.420;2022-10-23T04:24:34;1.73;;;0.90;;
71769;SDS011;59605;52.122;5.420;2022-10-23T04:27:00;1.25;;;1.10;;
71769;SDS011;59605;52.122;5.420;2022-10-23T04:29:26;1.90;;;1.25;;
71769;SDS011;59605;52.122;5.420;2022-10-23T04:31:56;1.27;;;1.08;;
71769;SDS011;59605;52.122;5.420;2022-10-23T04:34:23;1.10;;;1.00;;
71769;SDS011;59605;52.122;5.420;2022-10-23T04:36:49;1.50;;;1.08;;
71769;SDS011;59605;52.122;5.420;2022-10-23T04:39:15;1.13;;;0.85;;
71769;SDS011;59605;52.122;5.420;2022-10-23T04:41:42;1.52;;;1.00;;
71769;SDS011;59605;52.122;5.420;2022-10-23T04:44:08;2.00;;;1.00;;
71769;SDS011;59605;52.122;5.420;2022-10-23T04:46:34;1.37;;;1.13;;
71769;SDS011;59605;52.122;5.420;2022-10-23T04:49:01;1.25;;;0.82;;
71769;SDS011;59605;52.122;5.420;2022-10-23T04:51:27;1.25;;;0.80;;
71769;SDS011;59605;52.122;5.420;2022-10-23T04:53:53;2.83;;;0.70;;
71769;SDS011;59605;52.122;5.420;2022-10-23T04:56:20;1.88;;;1.00;;
71769;SDS011;59605;52.122;5.420;2022-10-23T04:58:46;2.67;;;1.00;;
71769;SDS011;59605;52.122;5.420;2022-10-23T05:01:12;1.25;;;0.90;;
71769;SDS011;59605;52.122;5.420;2022-10-23T05:03:39;2.05;;;0.93;;
71769;SDS011;59605;52.122;5.420;2022-10-23T05:06:06;2.28;;;1.23;;
71769;SDS011;59605;52.122;5.420;2022-10-23T05:08:32;1.10;;;0.80;;
71769;SDS011;59605;52.122;5.420;2022-10-23T05:11:00;1.50;;;0.90;;
71769;SDS011;59605;52.122;5.420;2022-10-23T05:13:27;1.27;;;1.00;;
71769;SDS011;59605;52.122;5.420;2022-10-23T05:15:54;1.73;;;1.00;;
71769;SDS011;59605;52.122;5.420;2022-10-23T05:18:25;1.40;;;0.95;;
71769;SDS011;59605;52.122;5.420;2022-10-23T05:20:55;1.30;;;1.00;;
71769;SDS011;59605;52.122;5.420;2022-10-23T05:23:27;1.40;;;1.27;;
71769;SDS011;59605;52.122;5.420;2022-10-23T05:25:58;1.98;;;0.90;;
71769;SDS011;59605;52.122;5.420;2022-10-23T05:28:24;1.77;;;0.90;;
71769;SDS011;59605;52.122;5.420;2022-10-23T05:30:51;1.38;;;1.00;;
71769;SDS011;59605;52.122;5.420;2022-10-23T05:33:17;1.20;;;0.90;;
71769;SDS011;59605;52.122;5.420;2022-10-23T05:35:44;1.67;;;1.10;;
71769;SDS011;59605;52.122;5.420;2022-10-23T05:38:10;1.25;;;0.93;;
71769;SDS011;59605;52.122;5.420;2022-10-23T05:40:39;1.23;;;1.00;;
71769;SDS011;59605;52.122;5.420;2022-10-23T05:43:05;1.30;;;0.75;;
71769;SDS011;59605;52.122;5.420;2022-10-23T05:45:32;1.83;;;0.90;;
71769;SDS011;59605;52.122;5.420;2022-10-23T05:47:58;1.53;;;1.00;;
71769;SDS011;59605;52.122;5.420;2022-10-23T05:50:42;1.45;;;0.77;;
71769;SDS011;59605;52.122;5.420;2022-10-23T05:53:11;1.20;;;0.80;;
71769;SDS011;59605;52.122;5.420;2022-10-23T05:55:37;1.42;;;0.90;;
71769;SDS011;59605;52.122;5.420;2022-10-23T05:58:04;1.27;;;0.93;;
71769;SDS011;59605;52.122;5.420;2022-10-23T06:00:30;1.33;;;0.80;;
71769;SDS011;59605;52.122;5.420;2022-10-23T06:03:00;1.83;;;1.33;;
71769;SDS011;59605;52.122;5.420;2022-10-23T06:05:26;1.30;;;0.88;;
71769;SDS011;59605;52.122;5.420;2022-10-23T06:07:59;1.38;;;0.68;;
71769;SDS011;59605;52.122;5.420;2022-10-23T06:10:25;1.52;;;0.90;;
71769;SDS011;59605;52.122;5.420;2022-10-23T06:12:52;1.27;;;0.77;;
71769;SDS011;59605;52.122;5.420;2022-10-23T06:15:18;1.77;;;1.00;;
71769;SDS011;59605;52.122;5.420;2022-10-23T06:17:45;1.05;;;0.70;;
71769;SDS011;59605;52.122;5.420;2022-10-23T06:20:11;1.15;;;1.00;;
71769;SDS011;59605;52.122;5.420;2022-10-23T06:22:38;1.65;;;1.10;;
71769;SDS011;59605;52.122;5.420;2022-10-23T06:25:04;1.97;;;0.80;;
71769;SDS011;59605;52.122;5.420;2022-10-23T06:27:31;1.33;;;0.80;;
71769;SDS011;59605;52.122;5.420;2022-10-23T06:29:58;1.63;;;0.90;;
71769;SDS011;59605;52.122;5.420;2022-10-23T06:32:24;2.47;;;0.90;;
71769;SDS011;59605;52.122;5.420;2022-10-23T06:34:50;1.00;;;0.90;;
71769;SDS011;59605;52.122;5.420;2022-10-23T06:37:17;1.70;;;0.97;;
71769;SDS011;59605;52.122;5.420;2022-10-23T06:39:43;1.30;;;1.00;;
71769;SDS011;59605;52.122;5.420;2022-10-23T06:42:09;1.45;;;0.80;;
71769;SDS011;59605;52.122;5.420;2022-10-23T06:44:36;1.52;;;0.90;;
71769;SDS011;59605;52.122;5.420;2022-10-23T06:47:02;1.92;;;0.70;;
71769;SDS011;59605;52.122;5.420;2022-10-23T06:49:29;1.53;;;0.87;;
71769;SDS011;59605;52.122;5.420;2022-10-23T06:51:55;1.27;;;0.93;;
71769;SDS011;59605;52.122;5.420;2022-10-23T06:54:21;1.25;;;0.80;;
71769;SDS011;59605;52.122;5.420;2022-10-23T06:56:48;0.98;;;0.70;;
71769;SDS011;59605;52.122;5.420;2022-10-23T06:59:14;1.77;;;0.82;;
71769;SDS011;59605;52.122;5.420;2022-10-23T07:01:41;2.20;;;0.70;;
71769;SDS011;59605;52.122;5.420;2022-10-23T07:04:07;3.08;;;1.00;;
71769;SDS011;59605;52.122;5.420;2022-10-23T07:06:34;2.85;;;0.80;;
71769;SDS011;59605;52.122;5.420;2022-10-23T07:09:00;1.35;;;0.80;;
71769;SDS011;59605;52.122;5.420;2022-10-23T07:11:26;1.00;;;0.70;;
71769;SDS011;59605;52.122;5.420;2022-10-23T07:13:53;2.17;;;0.80;;
71769;SDS011;59605;52.122;5.420;2022-10-23T07:16:19;1.60;;;0.90;;
71769;SDS011;59605;52.122;5.420;2022-10-23T07:18:47;1.63;;;0.70;;
71769;SDS011;59605;52.122;5.420;2022-10-23T07:21:15;1.20;;;0.82;;
71769;SDS011;59605;52.122;5.420;2022-10-23T07:23:41;1.30;;;0.82;;
71769;SDS011;59605;52.122;5.420;2022-10-23T07:26:10;1.90;;;1.00;;
71769;SDS011;59605;52.122;5.420;2022-10-23T07:28:40;1.35;;;0.80;;
71769;SDS011;59605;52.122;5.420;2022-10-23T07:31:06;2.83;;;1.00;;
71769;SDS011;59605;52.122;5.420;2022-10-23T07:33:33;1.85;;;0.90;;
71769;SDS011;59605;52.122;5.420;2022-10-23T07:35:59;0.95;;;0.80;;
71769;SDS011;59605;52.122;5.420;2022-10-23T07:38:26;0.93;;;0.83;;
71769;SDS011;59605;52.122;5.420;2022-10-23T07:40:53;1.05;;;0.85;;
71769;SDS011;59605;52.122;5.420;2022-10-23T07:43:22;1.60;;;0.85;;
71769;SDS011;59605;52.122;5.420;2022-10-23T07:45:50;1.00;;;0.82;;
71769;SDS011;59605;52.122;5.420;2022-10-23T07:48:18;0.93;;;0.80;;
71769;SDS011;59605;52.122;5.420;2022-10-23T07:50:46;2.60;;;0.70;;
71769;SDS011;59605;52.122;5.420;2022-10-23T07:53:16;1.15;;;0.90;;
71769;SDS011;59605;52.122;5.420;2022-10-23T07:55:54;1.40;;;1.00;;
71769;SDS011;59605;52.122;5.420;2022-10-23T07:58:25;1.67;;;0.80;;
71769;SDS011;59605;52.122;5.420;2022-10-23T08:00:56;0.93;;;0.80;;
71769;SDS011;59605;52.122;5.420;2022-10-23T08:03:28;2.07;;;0.90;;
71769;SDS011;59605;52.122;5.420;2022-10-23T08:05:56;1.33;;;0.77;;
71769;SDS011;59605;52.122;5.420;2022-10-23T08:08:23;1.38;;;0.55;;
71769;SDS011;59605;52.122;5.420;2022-10-23T08:10:51;1.05;;;0.70;;
71769;SDS011;59605;52.122;5.420;2022-10-23T08:13:19;0.98;;;0.70;;
71769;SDS011;59605;52.122;5.420;2022-10-23T08:15:47;0.90;;;0.60;;
71769;SDS011;59605;52.122;5.420;2022-10-23T08:18:14;0.73;;;0.70;;
71769;SDS011;59605;52.122;5.420;2022-10-23T08:20:41;2.03;;;1.00;;
71769;SDS011;59605;52.122;5.420;2022-10-23T08:23:09;0.80;;;0.57;;
71769;SDS011;59605;52.122;5.420;2022-10-23T08:25:37;1.25;;;0.80;;
71769;SDS011;59605;52.122;5.420;2022-10-23T08:28:05;2.33;;;0.70;;
71769;SDS011;59605;52.122;5.420;2022-10-23T08:30:32;1.00;;;0.70;;
71769;SDS011;59605;52.122;5.420;2022-10-23T08:33:01;1.15;;;0.70;;
71769;SDS011;59605;52.122;5.420;2022-10-23T08:35:28;1.35;;;0.80;;
71769;SDS011;59605;52.122;5.420;2022-10-23T08:37:55;1.40;;;0.80;;
71769;SDS011;59605;52.122;5.420;2022-10-23T08:40:22;1.30;;;0.70;;
71769;SDS011;59605;52.122;5.420;2022-10-23T08:42:52;1.20;;;0.80;;
71769;SDS011;59605;52.122;5.420;2022-10-23T08:46:00;0.90;;;0.60;;
71769;SDS011;59605;52.122;5.420;2022-10-23T08:48:38;1.35;;;0.80;;
71769;SDS011;59605;52.122;5.420;2022-10-23T08:51:17;1.10;;;0.70;;
71769;SDS011;59605;52.122;5.420;2022-10-23T08:56:40;1.20;;;0.60;;
71769;SDS011;59605;52.122;5.420;2022-10-23T08:59:15;1.90;;;0.90;;
71769;SDS011;59605;52.122;5.420;2022-10-23T09:02:03;1.38;;;0.70;;
71769;SDS011;59605;52.122;5.420;2022-10-23T09:04:50;1.30;;;0.85;;
71769;SDS011;59605;52.122;5.420;2022-10-23T09:07:24;1.13;;;0.80;;
71769;SDS011;59605;52.122;5.420;2022-10-23T09:10:09;1.30;;;0.73;;
71769;SDS011;59605;52.122;5.420;2022-10-23T09:12:49;1.20;;;0.70;;
71769;SDS011;59605;52.122;5.420;2022-10-23T09:15:34;1.30;;;0.98;;
71769;SDS011;59605;52.122;5.420;2022-10-23T09:18:12;2.60;;;0.70;;
71769;SDS011;59605;52.122;5.420;2022-10-23T09:20:41;0.90;;;0.60;;
71769;SDS011;59605;52.122;5.420;2022-10-23T09:23:20;2.50;;;0.57;;
71769;SDS011;59605;52.122;5.420;2022-10-23T09:25:48;1.35;;;0.80;;
71769;SDS011;59605;52.122;5.420;2022-10-23T09:28:21;0.95;;;0.65;;
71769;SDS011;59605;52.122;5.420;2022-10-23T09:30:50;1.80;;;0.60;;
71769;SDS011;59605;52.122;5.420;2022-10-23T09:33:21;1.00;;;0.70;;
71769;SDS011;59605;52.122;5.420;2022-10-23T09:35:52;1.38;;;0.88;;
71769;SDS011;59605;52.122;5.420;2022-10-23T09:38:31;1.50;;;0.73;;
71769;SDS011;59605;52.122;5.420;2022-10-23T09:41:34;1.40;;;0.63;;
71769;SDS011;59605;52.122;5.420;2022-10-23T09:44:14;0.80;;;0.60;;
71769;SDS011;59605;52.122;5.420;2022-10-23T09:46:51;0.90;;;0.53;;
71769;SDS011;59605;52.122;5.420;2022-10-23T09:49:23;0.98;;;0.60;;
71769;SDS011;59605;52.122;5.420;2022-10-23T09:54:28;1.50;;;0.60;;
71769;SDS011;59605;52.122;5.420;2022-10-23T09:57:02;1.50;;;0.82;;
71769;SDS011;59605;52.122;5.420;2022-10-23T09:59:39;1.90;;;0.63;;
71769;SDS011;59605;52.122;5.420;2022-10-23T10:02:20;2.35;;;0.60;;
71769;SDS011;59605;52.122;5.420;2022-10-23T10:04:53;1.35;;;0.70;;
71769;SDS011;59605;52.122;5.420;2022-10-23T10:07:20;0.70;;;0.50;;
71769;SDS011;59605;52.122;5.420;2022-10-23T10:09:49;0.90;;;0.60;;
71769;SDS011;59605;52.122;5.420;2022-10-23T10:12:29;0.70;;;0.60;;
71769;SDS011;59605;52.122;5.420;2022-10-23T10:15:11;1.77;;;0.60;;
71769;SDS011;59605;52.122;5.420;2022-10-23T10:26:49;0.73;;;0.60;;
71769;SDS011;59605;52.122;5.420;2022-10-23T10:29:24;0.85;;;0.50;;
71769;SDS011;59605;52.122;5.420;2022-10-23T10:37:41;1.05;;;0.65;;
71769;SDS011;59605;52.122;5.420;2022-10-23T10:40:26;1.37;;;0.50;;
71769;SDS011;59605;52.122;5.420;2022-10-23T10:43:05;1.13;;;0.60;;
71769;SDS011;59605;52.122;5.420;2022-10-23T10:45:40;0.90;;;0.50;;
71769;SDS011;59605;52.122;5.420;2022-10-23T10:53:40;2.40;;;0.80;;
71769;SDS011;59605;52.122;5.420;2022-10-23T10:56:15;1.27;;;0.80;;
71769;SDS011;59605;52.122;5.420;2022-10-23T10:58:51;1.42;;;0.65;;
71769;SDS011;59605;52.122;5.420;2022-10-23T11:01:24;1.80;;;0.70;;
71769;SDS011;59605;52.122;5.420;2022-10-23T11:06:38;1.27;;;0.70;;
71769;SDS011;59605;52.122;5.420;2022-10-23T11:09:13;0.65;;;0.57;;
71769;SDS011;59605;52.122;5.420;2022-10-23T11:11:46;0.77;;;0.45;;
71769;SDS011;59605;52.122;5.420;2022-10-23T11:14:14;1.10;;;0.50;;
71769;SDS011;59605;52.122;5.420;2022-10-23T11:16:44;1.20;;;0.40;;
71769;SDS011;59605;52.122;5.420;2022-10-23T11:19:27;1.07;;;0.47;;
71769;SDS011;59605;52.122;5.420;2022-10-23T11:22:02;2.47;;;0.55;;
71769;SDS011;59605;52.122;5.420;2022-10-23T11:30:00;1.35;;;0.50;;
71769;SDS011;59605;52.122;5.420;2022-10-23T11:32:42;1.70;;;0.57;;
71769;SDS011;59605;52.122;5.420;2022-10-23T11:35:30;0.88;;;0.50;;
71769;SDS011;59605;52.122;5.420;2022-10-23T11:40:42;1.17;;;0.70;;
71769;SDS011;59605;52.122;5.420;2022-10-23T11:43:26;1.52;;;0.60;;
71769;SDS011;59605;52.122;5.420;2022-10-23T11:46:11;0.87;;;0.57;;
71769;SDS011;59605;52.122;5.420;2022-10-23T11:48:54;1.73;;;0.82;;
71769;SDS011;59605;52.122;5.420;2022-10-23T11:51:38;0.93;;;0.60;;
71769;SDS011;59605;52.122;5.420;2022-10-23T11:56:38;1.13;;;0.60;;
71769;SDS011;59605;52.122;5.420;2022-10-23T11:59:27;1.03;;;0.43;;
71769;SDS011;59605;52.122;5.420;2022-10-23T12:02:00;0.90;;;0.57;;
71769;SDS011;59605;52.122;5.420;2022-10-23T12:04:46;0.70;;;0.40;;
71769;SDS011;59605;52.122;5.420;2022-10-23T12:07:16;1.35;;;0.55;;
71769;SDS011;59605;52.122;5.420;2022-10-23T12:09:55;1.02;;;0.45;;
71769;SDS011;59605;52.122;5.420;2022-10-23T12:12:34;1.73;;;0.80;;
71769;SDS011;59605;52.122;5.420;2022-10-23T12:17:37;1.52;;;0.43;;
71769;SDS011;59605;52.122;5.420;2022-10-23T12:27:57;2.20;;;0.52;;
71769;SDS011;59605;52.122;5.420;2022-10-23T12:33:30;1.23;;;0.60;;
71769;SDS011;59605;52.122;5.420;2022-10-23T12:38:59;1.10;;;0.50;;
71769;SDS011;59605;52.122;5.420;2022-10-23T12:41:27;2.10;;;0.68;;
71769;SDS011;59605;52.122;5.420;2022-10-23T12:43:59;0.70;;;0.40;;
71769;SDS011;59605;52.122;5.420;2022-10-23T12:48:57;1.85;;;0.68;;
71769;SDS011;59605;52.122;5.420;2022-10-23T12:51:25;1.27;;;0.70;;
71769;SDS011;59605;52.122;5.420;2022-10-23T12:54:00;0.90;;;0.60;;
71769;SDS011;59605;52.122;5.420;2022-10-23T12:56:32;0.52;;;0.40;;
71769;SDS011;59605;52.122;5.420;2022-10-23T12:59:00;1.05;;;0.60;;
71769;SDS011;59605;52.122;5.420;2022-10-23T13:01:28;0.68;;;0.43;;
71769;SDS011;59605;52.122;5.420;2022-10-23T13:06:35;1.77;;;0.40;;
71769;SDS011;59605;52.122;5.420;2022-10-23T13:09:05;0.95;;;0.40;;
71769;SDS011;59605;52.122;5.420;2022-10-23T13:11:41;0.85;;;0.40;;
71769;SDS011;59605;52.122;5.420;2022-10-23T13:14:11;1.00;;;0.52;;
71769;SDS011;59605;52.122;5.420;2022-10-23T13:16:39;0.80;;;0.40;;
71769;SDS011;59605;52.122;5.420;2022-10-23T13:19:05;0.98;;;0.40;;
71769;SDS011;59605;52.122;5.420;2022-10-23T13:21:31;0.73;;;0.43;;
71769;SDS011;59605;52.122;5.420;2022-10-23T13:23:58;1.83;;;0.70;;
71769;SDS011;59605;52.122;5.420;2022-10-23T13:26:29;0.70;;;0.50;;
71769;SDS011;59605;52.122;5.420;2022-10-23T13:29:41;0.80;;;0.50;;
71769;SDS011;59605;52.122;5.420;2022-10-23T13:32:10;0.75;;;0.60;;
71769;SDS011;59605;52.122;5.420;2022-10-23T13:34:37;1.92;;;0.50;;
71769;SDS011;59605;52.122;5.420;2022-10-23T13:37:22;2.60;;;0.40;;
71769;SDS011;59605;52.122;5.420;2022-10-23T13:40:04;1.10;;;0.50;;
71769;SDS011;59605;52.122;5.420;2022-10-23T13:42:35;1.47;;;0.40;;
71769;SDS011;59605;52.122;5.420;2022-10-23T13:45:01;1.30;;;0.60;;
71769;SDS011;59605;52.122;5.420;2022-10-23T13:47:28;0.73;;;0.43;;
71769;SDS011;59605;52.122;5.420;2022-10-23T13:49:54;4.40;;;0.60;;
71769;SDS011;59605;52.122;5.420;2022-10-23T13:52:20;2.92;;;0.50;;
71769;SDS011;59605;52.122;5.420;2022-10-23T13:54:48;3.17;;;1.00;;
71769;SDS011;59605;52.122;5.420;2022-10-23T13:57:15;2.22;;;0.50;;
71769;SDS011;59605;52.122;5.420;2022-10-23T13:59:42;2.35;;;0.50;;
71769;SDS011;59605;52.122;5.420;2022-10-23T14:02:18;5.95;;;0.60;;
71769;SDS011;59605;52.122;5.420;2022-10-23T14:04:46;4.15;;;0.60;;
71769;SDS011;59605;52.122;5.420;2022-10-23T14:07:13;4.10;;;0.57;;
71769;SDS011;59605;52.122;5.420;2022-10-23T14:09:40;7.75;;;0.70;;
71769;SDS011;59605;52.122;5.420;2022-10-23T14:12:07;3.15;;;0.50;;
71769;SDS011;59605;52.122;5.420;2022-10-23T14:14:33;2.47;;;0.50;;
71769;SDS011;59605;52.122;5.420;2022-10-23T14:16:59;2.63;;;0.50;;
71769;SDS011;59605;52.122;5.420;2022-10-23T14:19:26;3.03;;;0.60;;
71769;SDS011;59605;52.122;5.420;2022-10-23T14:21:52;2.72;;;0.40;;
71769;SDS011;59605;52.122;5.420;2022-10-23T14:24:19;4.45;;;0.60;;
71769;SDS011;59605;52.122;5.420;2022-10-23T14:26:45;3.20;;;0.60;;
71769;SDS011;59605;52.122;5.420;2022-10-23T14:29:12;1.38;;;0.45;;
71769;SDS011;59605;52.122;5.420;2022-10-23T14:31:49;6.60;;;0.93;;
71769;SDS011;59605;52.122;5.420;2022-10-23T14:34:15;2.83;;;0.60;;
71769;SDS011;59605;52.122;5.420;2022-10-23T14:36:41;1.15;;;0.40;;
71769;SDS011;59605;52.122;5.420;2022-10-23T14:39:15;5.03;;;0.50;;
71769;SDS011;59605;52.122;5.420;2022-10-23T14:41:42;0.98;;;0.50;;
71769;SDS011;59605;52.122;5.420;2022-10-23T14:44:08;3.00;;;0.50;;
71769;SDS011;59605;52.122;5.420;2022-10-23T14:46:34;2.75;;;0.50;;
71769;SDS011;59605;52.122;5.420;2022-10-23T14:49:03;1.45;;;0.50;;
71769;SDS011;59605;52.122;5.420;2022-10-23T14:51:29;1.98;;;0.70;;
71769;SDS011;59605;52.122;5.420;2022-10-23T14:53:56;2.60;;;0.38;;
71769;SDS011;59605;52.122;5.420;2022-10-23T14:56:28;1.40;;;0.50;;
71769;SDS011;59605;52.122;5.420;2022-10-23T14:58:56;3.47;;;0.65;;
71769;SDS011;59605;52.122;5.420;2022-10-23T15:01:28;1.10;;;0.57;;
71769;SDS011;59605;52.122;5.420;2022-10-23T15:03:56;1.40;;;0.68;;
71769;SDS011;59605;52.122;5.420;2022-10-23T15:06:23;2.42;;;0.60;;
71769;SDS011;59605;52.122;5.420;2022-10-23T15:08:50;3.60;;;0.53;;
71769;SDS011;59605;52.122;5.420;2022-10-23T15:11:18;2.10;;;0.50;;
71769;SDS011;59605;52.122;5.420;2022-10-23T15:13:44;3.88;;;0.57;;
71769;SDS011;59605;52.122;5.420;2022-10-23T15:16:11;3.55;;;0.65;;
71769;SDS011;59605;52.122;5.420;2022-10-23T15:18:37;6.07;;;0.60;;
71769;SDS011;59605;52.122;5.420;2022-10-23T15:21:04;2.73;;;0.50;;
71769;SDS011;59605;52.122;5.420;2022-10-23T15:23:33;4.88;;;0.50;;
71769;SDS011;59605;52.122;5.420;2022-10-23T15:26:02;1.60;;;0.52;;
71769;SDS011;59605;52.122;5.420;2022-10-23T15:28:31;0.95;;;0.47;;
71769;SDS011;59605;52.122;5.420;2022-10-23T15:30:58;3.95;;;0.50;;
71769;SDS011;59605;52.122;5.420;2022-10-23T15:33:24;1.63;;;0.40;;
71769;SDS011;59605;52.122;5.420;2022-10-23T15:35:51;3.45;;;0.50;;
71769;SDS011;59605;52.122;5.420;2022-10-23T15:38:18;2.83;;;0.52;;
71769;SDS011;59605;52.122;5.420;2022-10-23T15:40:45;2.40;;;0.43;;
71769;SDS011;59605;52.122;5.420;2022-10-23T15:43:12;2.78;;;0.50;;
71769;SDS011;59605;52.122;5.420;2022-10-23T15:45:39;3.70;;;0.53;;
71769;SDS011;59605;52.122;5.420;2022-10-23T15:48:09;2.10;;;0.50;;
71769;SDS011;59605;52.122;5.420;2022-10-23T15:50:35;1.83;;;0.43;;
71769;SDS011;59605;52.122;5.420;2022-10-23T15:53:02;3.10;;;0.40;;
71769;SDS011;59605;52.122;5.420;2022-10-23T15:55:28;5.03;;;0.40;;
71769;SDS011;59605;52.122;5.420;2022-10-23T15:57:55;1.30;;;0.60;;
71769;SDS011;59605;52.122;5.420;2022-10-23T16:00:26;1.63;;;0.68;;
71769;SDS011;59605;52.122;5.420;2022-10-23T16:02:53;1.15;;;0.60;;
71769;SDS011;59605;52.122;5.420;2022-10-23T16:05:19;1.77;;;0.47;;
71769;SDS011;59605;52.122;5.420;2022-10-23T16:07:46;2.60;;;0.40;;
71769;SDS011;59605;52.122;5.420;2022-10-23T16:10:12;3.33;;;0.50;;
71769;SDS011;59605;52.122;5.420;2022-10-23T16:12:38;1.45;;;0.47;;
71769;SDS011;59605;52.122;5.420;2022-10-23T16:15:05;1.88;;;0.80;;
71769;SDS011;59605;52.122;5.420;2022-10-23T16:17:33;1.05;;;0.47;;
71769;SDS011;59605;52.122;5.420;2022-10-23T16:19:59;1.00;;;0.50;;
71769;SDS011;59605;52.122;5.420;2022-10-23T16:22:25;1.73;;;0.50;;
71769;SDS011;59605;52.122;5.420;2022-10-23T16:24:52;0.93;;;0.40;;
71769;SDS011;59605;52.122;5.420;2022-10-23T16:27:18;2.83;;;0.50;;
71769;SDS011;59605;52.122;5.420;2022-10-23T16:29:44;1.63;;;0.65;;
71769;SDS011;59605;52.122;5.420;2022-10-23T16:32:11;3.42;;;0.50;;
71769;SDS011;59605;52.122;5.420;2022-10-23T16:34:37;2.30;;;0.50;;
71769;SDS011;59605;52.122;5.420;2022-10-23T16:37:04;2.97;;;0.50;;
71769;SDS011;59605;52.122;5.420;2022-10-23T16:39:30;2.50;;;0.40;;
71769;SDS011;59605;52.122;5.420;2022-10-23T16:41:56;1.65;;;0.60;;
71769;SDS011;59605;52.122;5.420;2022-10-23T16:44:23;1.02;;;0.85;;
71769;SDS011;59605;52.122;5.420;2022-10-23T16:46:49;1.77;;;0.50;;
71769;SDS011;59605;52.122;5.420;2022-10-23T16:49:16;1.83;;;0.50;;